createdAt,value
2018-02-10T00:00:38.613Z,101352.39
2018-02-10T00:03:06.110Z,101353.31
2018-02-10T00:05:33.666Z,101347.27
2018-02-10T00:08:01.205Z,101350.34
2018-02-10T00:10:28.783Z,101350.27
2018-02-10T00:12:56.313Z,101349.87
2018-02-10T00:15:23.840Z,101348.11
2018-02-10T00:17:51.396Z,101344.19
2018-02-10T00:20:18.921Z,101345.87
2018-02-10T00:22:50.892Z,101350.27
2018-02-10T00:25:18.459Z,101348.95
2018-02-10T00:27:46.991Z,101360.41
2018-02-10T00:30:14.756Z,101356.94
2018-02-10T00:32:42.492Z,101356.94
2018-02-10T00:35:10.096Z,101357.38
2018-02-10T00:37:37.656Z,101362.14
2018-02-10T00:40:05.216Z,101362.50
2018-02-10T00:42:32.760Z,101364.58
2018-02-10T00:45:00.308Z,101366.38
2018-02-10T00:47:27.839Z,101361.58
2018-02-10T00:49:55.551Z,101362.86
2018-02-10T00:52:23.110Z,101364.70
2018-02-10T00:54:50.663Z,101366.45
2018-02-10T00:57:18.202Z,101369.85
2018-02-10T00:59:45.719Z,101360.19
2018-02-10T01:02:13.242Z,101365.45
2018-02-10T01:04:40.786Z,101367.17
2018-02-10T01:07:08.341Z,101360.18
2018-02-10T01:09:35.869Z,101367.26
2018-02-10T01:12:03.409Z,101361.02
2018-02-10T01:14:30.933Z,101361.02
2018-02-10T01:16:58.475Z,101360.22
2018-02-10T01:19:26.181Z,101357.19
2018-02-10T01:21:53.714Z,101364.27
2018-02-10T01:24:21.253Z,101354.47
2018-02-10T01:26:48.787Z,101358.50
2018-02-10T01:29:16.324Z,101365.06
2018-02-10T01:31:43.856Z,101355.87
2018-02-10T01:34:11.389Z,101366.38
2018-02-10T01:36:38.905Z,101361.46
2018-02-10T01:39:06.492Z,101360.14
2018-02-10T01:41:34.009Z,101360.50
2018-02-10T01:44:01.553Z,101357.42
2018-02-10T01:46:29.182Z,101357.42
2018-02-10T01:48:56.778Z,101360.02
2018-02-10T01:51:24.521Z,101355.53
2018-02-10T01:53:52.090Z,101357.73
2018-02-10T01:56:19.618Z,101353.38
2018-02-10T01:58:47.280Z,101359.58
2018-02-10T02:01:14.796Z,101356.94
2018-02-10T02:03:42.317Z,101357.86
2018-02-10T02:06:09.856Z,101356.54
2018-02-10T02:08:37.413Z,101355.27
2018-02-10T02:11:04.973Z,101361.90
2018-02-10T02:13:32.540Z,101352.67
2018-02-10T02:16:00.061Z,101354.39
2018-02-10T02:18:27.597Z,101345.13
2018-02-10T02:20:55.127Z,101349.56
2018-02-10T02:23:22.650Z,101349.59
2018-02-10T02:25:50.176Z,101354.39
2018-02-10T02:28:17.716Z,101353.77
2018-02-10T02:30:45.245Z,101343.27
2018-02-10T02:33:12.777Z,101347.23
2018-02-10T02:35:40.304Z,101351.75
2018-02-10T02:38:07.829Z,101344.64
2018-02-10T02:40:35.353Z,101347.63
2018-02-10T02:43:02.983Z,101344.20
2018-02-10T02:45:30.510Z,101345.59
2018-02-10T02:47:58.035Z,101338.13
2018-02-10T02:50:25.565Z,101338.48
2018-02-10T02:52:53.105Z,101336.73
2018-02-10T02:55:20.657Z,101330.19
2018-02-10T02:57:48.203Z,101337.65
2018-02-10T03:00:15.725Z,101328.47
2018-02-10T03:02:43.255Z,101333.26
2018-02-10T03:05:10.781Z,101328.39
2018-02-10T03:07:38.306Z,101328.34
2018-02-10T03:10:05.831Z,101324.39
2018-02-10T03:12:33.361Z,101326.59
2018-02-10T03:15:00.882Z,101328.22
2018-02-10T03:17:28.410Z,101322.02
2018-02-10T03:19:55.973Z,101323.81
2018-02-10T03:22:23.501Z,101313.72
2018-02-10T03:24:51.032Z,101315.96
2018-02-10T03:27:18.562Z,101325.53
2018-02-10T03:29:46.107Z,101316.80
2018-02-10T03:32:13.628Z,101317.44
2018-02-10T03:34:41.157Z,101321.87
2018-02-10T03:37:08.683Z,101317.44
2018-02-10T03:39:36.199Z,101319.03
2018-02-10T03:42:03.738Z,101325.34
2018-02-10T03:44:31.261Z,101323.55
2018-02-10T03:46:58.836Z,101322.63
2018-02-10T03:49:26.445Z,101325.79
2018-02-10T03:51:53.978Z,101326.19
2018-02-10T03:54:21.500Z,101324.11
2018-02-10T03:56:49.057Z,101321.80
2018-02-10T03:59:16.597Z,101328.83
2018-02-10T04:01:44.148Z,101331.90
2018-02-10T04:04:11.669Z,101330.58
2018-02-10T04:06:39.194Z,101324.42
2018-02-10T04:09:06.733Z,101327.06
2018-02-10T04:11:34.260Z,101333.66
2018-02-10T04:14:01.802Z,101338.49
2018-02-10T04:16:29.625Z,101333.61
2018-02-10T04:18:57.164Z,101335.37
2018-02-10T04:21:24.688Z,101335.81
2018-02-10T04:23:52.285Z,101339.77
2018-02-10T04:26:19.804Z,101331.06
2018-02-10T04:28:47.335Z,101329.78
2018-02-10T04:31:14.860Z,101320.60
2018-02-10T04:33:42.393Z,101322.11
2018-02-10T04:36:09.917Z,101320.03
2018-02-10T04:38:37.645Z,101321.87
2018-02-10T04:41:05.227Z,101320.16
2018-02-10T04:43:32.761Z,101324.83
2018-02-10T04:46:00.329Z,101325.14
2018-02-10T04:48:27.853Z,101324.34
2018-02-10T04:50:55.441Z,101329.13
2018-02-10T04:53:22.965Z,101328.17
2018-02-10T04:55:50.495Z,101319.82
2018-02-10T04:58:18.112Z,101328.60
2018-02-10T05:00:45.686Z,101332.95
2018-02-10T05:03:13.253Z,101323.73
2018-02-10T05:05:40.798Z,101326.41
2018-02-10T05:08:08.323Z,101330.33
2018-02-10T05:10:35.849Z,101326.41
2018-02-10T05:13:03.487Z,101331.73
2018-02-10T05:15:31.044Z,101332.13
2018-02-10T05:17:58.564Z,101331.69
2018-02-10T05:20:26.114Z,101332.17
2018-02-10T05:22:53.653Z,101331.23
2018-02-10T05:25:21.210Z,101331.20
2018-02-10T05:27:48.750Z,101330.36
2018-02-10T05:30:16.327Z,101327.38
2018-02-10T05:32:43.868Z,101332.70
2018-02-10T05:35:11.393Z,101335.77
2018-02-10T05:37:38.937Z,101337.44
2018-02-10T05:40:06.542Z,101340.55
2018-02-10T05:42:34.074Z,101343.28
2018-02-10T05:45:01.588Z,101347.19
2018-02-10T05:47:29.124Z,101348.55
2018-02-10T05:49:56.664Z,101349.07
2018-02-10T05:52:24.201Z,101347.62
2018-02-10T05:54:51.753Z,101350.27
2018-02-10T05:57:19.286Z,101348.02
2018-02-10T05:59:46.828Z,101357.16
2018-02-10T06:02:14.380Z,101351.87
2018-02-10T06:04:41.909Z,101357.59
2018-02-10T06:07:09.462Z,101356.28
2018-02-10T06:09:37.005Z,101354.12
2018-02-10T06:12:04.542Z,101361.02
2018-02-10T06:14:32.076Z,101361.49
2018-02-10T06:16:59.641Z,101363.25
2018-02-10T06:19:27.178Z,101368.96
2018-02-10T06:21:54.718Z,101371.69
2018-02-10T06:24:22.302Z,101370.87
2018-02-10T06:26:49.881Z,101370.91
2018-02-10T06:29:17.411Z,101376.63
2018-02-10T06:31:44.940Z,101373.06
2018-02-10T06:34:12.474Z,101372.22
2018-02-10T06:36:40.020Z,101374.33
2018-02-10T06:39:07.553Z,101373.89
2018-02-10T06:41:35.084Z,101380.08
2018-02-10T06:44:02.637Z,101382.72
2018-02-10T06:46:30.157Z,101378.33
2018-02-10T06:48:57.672Z,101383.56
2018-02-10T06:51:25.247Z,101378.86
2018-02-10T06:53:52.781Z,101386.19
2018-02-10T06:56:20.308Z,101386.58
2018-02-10T06:58:47.850Z,101381.75
2018-02-10T07:01:15.410Z,101390.14
2018-02-10T07:03:42.940Z,101392.73
2018-02-10T07:06:10.534Z,101394.62
2018-02-10T07:08:38.094Z,101398.28
2018-02-10T07:11:05.624Z,101395.98
2018-02-10T07:13:33.151Z,101395.50
2018-02-10T07:16:00.680Z,101395.56
2018-02-10T07:18:28.202Z,101393.36
2018-02-10T07:20:55.789Z,101393.80
2018-02-10T07:23:23.316Z,101391.90
2018-02-10T07:25:50.897Z,101395.11
2018-02-10T07:28:18.483Z,101396.00
2018-02-10T07:30:46.018Z,101397.75
2018-02-10T07:33:13.535Z,101399.55
2018-02-10T07:35:41.165Z,101396.96
2018-02-10T07:38:08.696Z,101395.16
2018-02-10T07:40:36.225Z,101398.72
2018-02-10T07:43:03.777Z,101397.48
2018-02-10T07:45:31.295Z,101401.88
2018-02-10T07:47:58.825Z,101403.59
2018-02-10T07:50:26.346Z,101403.69
2018-02-10T07:52:53.977Z,101412.96
2018-02-10T07:55:21.538Z,101412.65
2018-02-10T07:57:49.195Z,101400.34
2018-02-10T08:00:16.717Z,101405.18
2018-02-10T08:02:44.278Z,101401.70
2018-02-10T08:05:11.798Z,101408.20
2018-02-10T08:07:39.329Z,101407.41
2018-02-10T08:10:06.861Z,101407.81
2018-02-10T08:12:34.385Z,101408.30
2018-02-10T08:15:02.017Z,101411.02
2018-02-10T08:17:29.552Z,101408.38
2018-02-10T08:19:57.065Z,101411.94
2018-02-10T08:22:24.589Z,101417.20
2018-02-10T08:24:52.151Z,101410.66
2018-02-10T08:27:19.683Z,101416.33
2018-02-10T08:29:47.196Z,101415.09
2018-02-10T08:32:14.726Z,101404.89
2018-02-10T08:34:42.271Z,101404.13
2018-02-10T08:37:09.808Z,101406.33
2018-02-10T08:39:37.362Z,101407.20
2018-02-10T08:42:04.923Z,101405.52
2018-02-10T08:44:32.463Z,101409.55
2018-02-10T08:47:00.000Z,101408.56
2018-02-10T08:49:27.541Z,101404.30
2018-02-10T08:51:55.056Z,101410.43
2018-02-10T08:54:22.620Z,101395.51
2018-02-10T08:56:50.220Z,101400.31
2018-02-10T08:59:17.749Z,101400.75
2018-02-10T09:01:45.278Z,101387.27
2018-02-10T09:04:12.833Z,101386.45
2018-02-10T09:06:40.347Z,101374.59
2018-02-10T09:09:07.859Z,101386.89
2018-02-10T09:11:35.485Z,101383.81
2018-02-10T09:14:03.004Z,101390.38
2018-02-10T09:16:30.553Z,101390.91
2018-02-10T09:18:58.075Z,101397.92
2018-02-10T09:21:25.595Z,101401.03
2018-02-10T09:23:53.128Z,101397.95
2018-02-10T09:26:20.674Z,101398.09
2018-02-10T09:28:48.199Z,101392.29
2018-02-10T09:31:15.725Z,101394.98
2018-02-10T09:33:43.245Z,101390.19
2018-02-10T09:36:10.852Z,101396.34
2018-02-10T09:38:38.389Z,101401.22
2018-02-10T09:41:05.929Z,101399.06
2018-02-10T09:43:33.552Z,101393.37
2018-02-10T09:46:01.113Z,101393.00
2018-02-10T09:48:28.642Z,101391.70
2018-02-10T09:50:56.199Z,101389.09
2018-02-10T09:56:22.843Z,101380.71
2018-02-10T09:58:50.356Z,101378.55
2018-02-10T10:01:17.882Z,101370.14
2018-02-10T10:03:45.407Z,101376.81
2018-02-10T10:06:12.939Z,101368.91
2018-02-10T10:08:40.465Z,101366.25
2018-02-10T10:11:07.979Z,101366.27
2018-02-10T10:13:35.505Z,101366.73
2018-02-10T10:16:03.040Z,101368.49
2018-02-10T10:18:30.555Z,101364.09
2018-02-10T10:20:58.072Z,101367.14
2018-02-10T10:23:25.615Z,101365.42
2018-02-10T10:25:53.148Z,101370.70
2018-02-10T10:28:20.671Z,101366.73
2018-02-10T10:30:48.211Z,101368.52
2018-02-10T10:33:15.725Z,101374.25
2018-02-10T10:35:43.233Z,101363.24
2018-02-10T10:38:10.752Z,101370.31
2018-02-10T10:40:38.311Z,101368.98
2018-02-10T10:43:05.846Z,101369.43
2018-02-10T10:45:33.380Z,101369.86
2018-02-10T10:48:00.910Z,101364.99
2018-02-10T10:50:28.425Z,101365.45
2018-02-10T10:52:55.958Z,101356.63
2018-02-10T10:55:23.521Z,101349.56
2018-02-10T10:57:51.119Z,101350.43
2018-02-10T11:00:18.633Z,101340.25
2018-02-10T11:02:46.169Z,101342.46
2018-02-10T11:05:13.717Z,101337.56
2018-02-10T11:07:41.281Z,101330.08
2018-02-10T11:10:08.800Z,101328.70
2018-02-10T11:12:36.332Z,101328.27
2018-02-10T11:15:03.867Z,101319.45
2018-02-10T11:17:31.406Z,101313.67
2018-02-10T11:19:58.954Z,101311.04
2018-02-10T11:22:26.504Z,101312.27
2018-02-10T11:24:54.033Z,101309.55
2018-02-10T11:27:21.597Z,101304.36
2018-02-10T11:29:49.121Z,101303.83
2018-02-10T11:32:16.652Z,101290.63
2018-02-10T11:34:44.187Z,101291.77
2018-02-10T11:37:11.702Z,101285.04
2018-02-10T11:39:39.257Z,101290.26
2018-02-10T11:42:06.775Z,101279.14
2018-02-10T11:44:34.291Z,101282.78
2018-02-10T11:47:01.804Z,101273.85
2018-02-10T11:49:29.323Z,101261.46
2018-02-10T11:51:56.857Z,101260.86
2018-02-10T11:54:24.376Z,101257.91
2018-02-10T11:56:52.085Z,101258.76
2018-02-10T11:59:19.624Z,101265.23
2018-02-10T12:01:47.161Z,101264.03
2018-02-10T12:04:14.687Z,101256.20
2018-02-10T12:06:42.198Z,101244.81
2018-02-10T12:09:09.732Z,101246.66
2018-02-10T12:11:37.968Z,101246.58
2018-02-10T12:14:05.503Z,101240.98
2018-02-10T12:16:33.031Z,101232.99
2018-02-10T12:19:00.589Z,101225.44
2018-02-10T12:21:28.121Z,101225.55
2018-02-10T12:23:55.633Z,101223.39
2018-02-10T12:26:23.197Z,101222.30
2018-02-10T12:28:50.708Z,101231.42
2018-02-10T12:31:18.232Z,101227.31
2018-02-10T12:33:45.742Z,101224.58
2018-02-10T12:36:13.306Z,101224.86
2018-02-10T12:38:40.882Z,101219.52
2018-02-10T12:41:08.584Z,101216.34
2018-02-10T12:43:36.174Z,101220.80
2018-02-10T12:46:03.676Z,101216.48
2018-02-10T12:48:36.882Z,101213.33
2018-02-10T12:51:04.397Z,101208.12
2018-02-10T12:53:31.929Z,101209.19
2018-02-10T12:55:59.646Z,101207.50
2018-02-10T12:58:27.223Z,101204.38
2018-02-10T13:00:54.745Z,101209.82
2018-02-10T13:03:22.259Z,101209.30
2018-02-10T13:05:49.774Z,101202.84
2018-02-10T13:08:17.292Z,101196.80
2018-02-10T13:10:44.840Z,101208.02
2018-02-10T13:13:12.365Z,101201.97
2018-02-10T13:15:39.895Z,101207.08
2018-02-10T13:18:07.437Z,101202.07
2018-02-10T13:20:34.952Z,101204.62
2018-02-10T13:23:02.497Z,101203.23
2018-02-10T13:25:30.026Z,101205.85
2018-02-10T13:27:57.565Z,101210.92
2018-02-10T13:30:25.096Z,101199.37
2018-02-10T13:32:52.610Z,101199.57
2018-02-10T13:35:20.144Z,101203.55
2018-02-10T13:37:47.657Z,101205.01
2018-02-10T13:40:15.190Z,101197.46
2018-02-10T13:42:42.708Z,101197.72
2018-02-10T13:45:10.216Z,101197.66
2018-02-10T13:47:37.742Z,101194.30
2018-02-10T13:50:05.271Z,101190.99
2018-02-10T13:52:32.796Z,101192.73
2018-02-10T13:55:00.305Z,101192.45
2018-02-10T13:57:27.817Z,101184.41
2018-02-10T13:59:55.336Z,101185.28
2018-02-10T14:02:22.854Z,101186.44
2018-02-10T14:04:50.385Z,101185.00
2018-02-10T14:07:17.897Z,101182.28
2018-02-10T14:09:45.408Z,101182.52
2018-02-10T14:12:12.917Z,101183.92
2018-02-10T14:14:40.432Z,101189.37
2018-02-10T14:17:07.950Z,101185.89
2018-02-10T14:19:35.467Z,101185.90
2018-02-10T14:22:02.996Z,101175.36
2018-02-10T14:24:30.512Z,101178.88
2018-02-10T14:26:58.027Z,101182.82
2018-02-10T14:29:25.542Z,101177.86
2018-02-10T14:31:53.061Z,101188.66
2018-02-10T14:34:20.597Z,101180.31
2018-02-10T14:36:48.115Z,101185.10
2018-02-10T14:39:15.644Z,101187.30
2018-02-10T14:41:43.164Z,101193.86
2018-02-10T14:44:10.696Z,101189.07
2018-02-10T14:46:38.214Z,101183.36
2018-02-10T14:49:05.751Z,101185.23
2018-02-10T14:51:33.264Z,101182.13
2018-02-10T14:54:00.795Z,101180.39
2018-02-10T14:56:28.332Z,101177.70
2018-02-10T14:58:55.861Z,101177.73
2018-02-10T15:01:23.384Z,101177.31
2018-02-10T15:03:50.900Z,101180.59
2018-02-10T15:06:18.411Z,101178.72
2018-02-10T15:08:45.924Z,101174.34
2018-02-10T15:11:13.472Z,101174.33
2018-02-10T15:13:40.987Z,101179.24
2018-02-10T15:16:08.504Z,101171.77
2018-02-10T15:18:36.034Z,101178.51
2018-02-10T15:21:03.556Z,101166.13
2018-02-10T15:23:31.085Z,101170.14
2018-02-10T15:25:58.601Z,101171.06
2018-02-10T15:28:26.136Z,101169.28
2018-02-10T15:31:05.575Z,101173.67
2018-02-10T15:33:45.019Z,101168.90
2018-02-10T15:36:12.536Z,101177.70
2018-02-10T15:38:40.065Z,101176.41
2018-02-10T15:41:07.622Z,101178.19
2018-02-10T15:43:35.156Z,101179.50
2018-02-10T15:46:02.710Z,101179.53
2018-02-10T15:48:30.232Z,101174.66
2018-02-10T15:50:57.768Z,101179.55
2018-02-10T15:53:25.292Z,101164.52
2018-02-10T15:55:52.809Z,101169.84
2018-02-10T15:58:20.336Z,101165.42
2018-02-10T16:00:48.104Z,101160.61
2018-02-10T16:03:15.629Z,101168.98
2018-02-10T16:05:43.152Z,101166.83
2018-02-10T16:08:10.738Z,101166.38
2018-02-10T16:10:38.265Z,101162.85
2018-02-10T16:13:05.801Z,101166.42
2018-02-10T16:15:33.329Z,101166.88
2018-02-10T16:18:00.849Z,101171.72
2018-02-10T16:20:28.373Z,101175.70
2018-02-10T16:22:55.887Z,101174.81
2018-02-10T16:25:23.442Z,101174.83
2018-02-10T16:27:50.988Z,101181.89
2018-02-10T16:30:18.514Z,101177.03
2018-02-10T16:32:46.046Z,101175.28
2018-02-10T16:35:13.575Z,101177.03
2018-02-10T16:37:41.096Z,101187.63
2018-02-10T16:40:08.620Z,101185.45
2018-02-10T16:42:36.140Z,101184.12
2018-02-10T16:45:03.673Z,101187.21
2018-02-10T16:47:31.196Z,101190.30
2018-02-10T16:49:58.711Z,101180.16
2018-02-10T16:52:26.244Z,101169.11
2018-02-10T16:54:53.770Z,101165.13
2018-02-10T16:57:21.292Z,101163.81
2018-02-10T16:59:48.808Z,101163.84
2018-02-10T17:02:16.345Z,101168.24
2018-02-10T17:04:43.872Z,101166.05
2018-02-10T17:07:11.404Z,101167.82
2018-02-10T17:09:38.928Z,101164.73
2018-02-10T17:12:06.443Z,101150.62
2018-02-10T17:14:33.969Z,101156.38
2018-02-10T17:17:01.510Z,101156.38
2018-02-10T17:19:29.059Z,101148.87
2018-02-10T17:21:56.586Z,101147.12
2018-02-10T17:24:24.106Z,101138.74
2018-02-10T17:26:51.645Z,101143.14
2018-02-10T17:29:19.174Z,101142.69
2018-02-10T17:31:46.709Z,101141.82
2018-02-10T17:34:14.223Z,101138.76
2018-02-10T17:36:41.740Z,101137.44
2018-02-10T17:39:09.300Z,101135.23
2018-02-10T17:41:36.788Z,101129.48
2018-02-10T17:44:04.466Z,101131.68
2018-02-10T17:46:31.989Z,101128.15
2018-02-10T17:48:59.521Z,101135.67
2018-02-10T17:51:27.067Z,101137.42
2018-02-10T17:53:54.588Z,101133.01
2018-02-10T17:56:22.115Z,101131.69
2018-02-10T17:58:49.651Z,101129.08
2018-02-10T18:01:17.171Z,101139.20
2018-02-10T18:03:44.695Z,101139.20
2018-02-10T18:06:12.234Z,101145.83
2018-02-10T18:08:39.756Z,101143.20
2018-02-10T18:11:07.269Z,101139.23
2018-02-10T18:13:34.790Z,101130.84
2018-02-10T18:16:02.321Z,101132.61
2018-02-10T18:18:29.846Z,101129.08
2018-02-10T18:20:57.403Z,101121.60
2018-02-10T18:23:25.045Z,101127.76
2018-02-10T18:25:52.696Z,101126.00
2018-02-10T18:28:20.216Z,101126.41
2018-02-10T18:30:47.763Z,101122.02
2018-02-10T18:33:15.289Z,101114.09
2018-02-10T18:35:42.800Z,101116.29
2018-02-10T18:38:10.325Z,101114.55
2018-02-10T18:40:37.952Z,101111.91
2018-02-10T18:43:05.477Z,101105.73
2018-02-10T18:45:32.992Z,101103.52
2018-02-10T18:48:00.502Z,101103.96
2018-02-10T18:50:28.052Z,101096.46
2018-02-10T18:52:55.592Z,101100.45
2018-02-10T18:55:23.135Z,101095.58
2018-02-10T18:57:50.649Z,101093.80
2018-02-10T19:00:18.172Z,101090.74
2018-02-10T19:02:45.854Z,101095.59
2018-02-10T19:05:13.395Z,101087.21
2018-02-10T19:07:40.950Z,101088.09
2018-02-10T19:10:08.582Z,101089.87
2018-02-10T19:12:36.108Z,101093.37
2018-02-10T19:15:03.637Z,101090.72
2018-02-10T19:17:31.145Z,101084.59
2018-02-10T19:19:58.657Z,101082.81
2018-02-10T19:22:26.211Z,101087.20
2018-02-10T19:24:54.306Z,101080.61
2018-02-10T19:27:21.892Z,101082.81
2018-02-10T19:29:49.431Z,101076.20
2018-02-10T19:32:16.991Z,101080.16
2018-02-10T19:34:44.517Z,101073.55
2018-02-10T19:37:12.044Z,101070.05
2018-02-10T19:39:39.560Z,101074.88
2018-02-10T19:42:07.110Z,101064.31
2018-02-10T19:44:34.652Z,101065.19
2018-02-10T19:47:02.199Z,101068.30
2018-02-10T19:49:29.748Z,101060.33
2018-02-10T19:51:57.274Z,101051.53
2018-02-10T19:54:24.817Z,101050.19
2018-02-10T19:56:52.358Z,101047.13
2018-02-10T19:59:19.989Z,101043.17
2018-02-10T20:01:47.522Z,101037.02
2018-02-10T20:04:15.049Z,101037.00
2018-02-10T20:06:42.566Z,101040.52
2018-02-10T20:09:10.084Z,101038.75
2018-02-10T20:11:37.692Z,101033.48
2018-02-10T20:14:05.244Z,101035.70
2018-02-10T20:16:32.767Z,101028.20
2018-02-10T20:19:00.286Z,101031.72
2018-02-10T20:21:27.808Z,101027.28
2018-02-10T20:23:55.333Z,101037.02
2018-02-10T20:26:22.942Z,101034.79
2018-02-10T20:28:50.502Z,101033.92
2018-02-10T20:31:18.031Z,101039.20
2018-02-10T20:33:45.642Z,101029.52
2018-02-10T20:36:13.286Z,101039.22
2018-02-10T20:38:40.845Z,101037.02
2018-02-10T20:41:08.404Z,101035.67
2018-02-10T20:43:35.923Z,101032.58
2018-02-10T20:46:03.450Z,101025.10
2018-02-10T20:48:30.971Z,101019.79
2018-02-10T20:50:58.520Z,101020.70
2018-02-10T20:53:26.165Z,101022.89
2018-02-10T20:55:53.718Z,101020.23
2018-02-10T20:58:21.240Z,101015.41
2018-02-10T21:00:48.770Z,101018.93
2018-02-10T21:03:16.343Z,101022.88
2018-02-10T21:05:43.884Z,101021.56
2018-02-10T21:08:11.489Z,101014.95
2018-02-10T21:10:39.002Z,101015.39
2018-02-10T21:13:06.525Z,101019.39
2018-02-10T21:15:34.068Z,101015.38
2018-02-10T21:18:01.687Z,101014.06
2018-02-10T21:20:29.204Z,101012.75
2018-02-10T21:22:56.824Z,101008.38
2018-02-10T21:25:24.378Z,101006.13
2018-02-10T21:27:51.943Z,101003.95
2018-02-10T21:30:19.459Z,101002.64
2018-02-10T21:32:47.004Z,100997.34
2018-02-10T21:35:14.520Z,100999.10
2018-02-10T21:37:42.082Z,100999.12
2018-02-10T21:40:09.654Z,100992.07
2018-02-10T21:42:37.189Z,100997.34
2018-02-10T21:45:04.756Z,100988.94
2018-02-10T21:47:32.349Z,100985.44
2018-02-10T21:49:59.881Z,100983.25
2018-02-10T21:52:27.396Z,100973.98
2018-02-10T21:54:54.944Z,100975.75
2018-02-10T21:57:22.500Z,100963.45
2018-02-10T21:59:50.029Z,100970.94
2018-02-10T22:02:17.556Z,100967.85
2018-02-10T22:04:45.141Z,100963.00
2018-02-10T22:07:12.680Z,100955.52
2018-02-10T22:09:40.185Z,100956.38
2018-02-10T22:12:07.701Z,100953.30
2018-02-10T22:14:35.269Z,100948.45
2018-02-10T22:17:02.784Z,100946.70
2018-02-10T22:19:30.302Z,100942.73
2018-02-10T22:21:57.841Z,100937.89
2018-02-10T22:24:25.401Z,100936.11
2018-02-10T22:26:52.960Z,100929.50
2018-02-10T22:29:20.478Z,100924.66
2018-02-10T22:31:48.049Z,100922.89
2018-02-10T22:34:15.594Z,100918.91
2018-02-10T22:36:43.121Z,100913.69
2018-02-10T22:39:10.636Z,100915.00
2018-02-10T22:41:38.162Z,100913.66
2018-02-10T22:44:05.695Z,100907.45
2018-02-10T22:46:33.249Z,100908.78
2018-02-10T22:49:00.778Z,100896.87
2018-02-10T22:51:28.397Z,100897.23
2018-02-10T22:53:56.037Z,100901.28
2018-02-10T22:56:23.581Z,100899.96
2018-02-10T22:58:51.156Z,100896.41
2018-02-10T23:01:18.707Z,100892.02
2018-02-10T23:03:46.436Z,100890.34
2018-02-10T23:06:13.985Z,100884.98
2018-02-10T23:08:41.638Z,100871.33
2018-02-10T23:11:09.162Z,100874.86
2018-02-10T23:13:36.704Z,100874.89
2018-02-10T23:16:04.216Z,100865.21
2018-02-10T23:18:31.730Z,100867.83
2018-02-10T23:20:59.269Z,100861.23
2018-02-10T23:23:26.825Z,100856.84
2018-02-10T23:25:54.525Z,100848.89
2018-02-10T23:28:22.189Z,100855.91
2018-02-10T23:30:49.712Z,100849.70
2018-02-10T23:33:17.228Z,100853.23
2018-02-10T23:35:44.742Z,100851.90
2018-02-10T23:38:12.263Z,100855.45
2018-02-10T23:40:39.801Z,100854.55
2018-02-10T23:43:07.328Z,100850.61
2018-02-10T23:45:34.853Z,100848.45
2018-02-10T23:48:02.400Z,100844.02
2018-02-10T23:50:29.916Z,100844.02
2018-02-10T23:52:57.446Z,100847.98
2018-02-10T23:55:25.044Z,100850.59
2018-02-10T23:57:52.597Z,100846.19
